createdAt,value
2018-09-13T00:01:21.342Z,31.08
2018-09-13T00:03:52.111Z,31.41
2018-09-13T00:06:23.035Z,32.30
2018-09-13T00:08:53.628Z,32.21
2018-09-13T00:11:26.313Z,31.96
2018-09-13T00:13:56.851Z,31.41
2018-09-13T00:16:27.729Z,31.78
2018-09-13T00:18:58.322Z,31.99
2018-09-13T00:21:29.089Z,32.02
2018-09-13T00:23:59.741Z,31.99
2018-09-13T00:26:30.584Z,32.22
2018-09-13T00:29:01.140Z,32.16
2018-09-13T00:31:32.095Z,32.74
2018-09-13T00:34:02.706Z,32.71
2018-09-13T00:36:33.429Z,31.51
2018-09-13T00:39:05.316Z,30.99
2018-09-13T00:41:35.998Z,32.90
2018-09-13T00:44:06.561Z,32.05
2018-09-13T00:46:37.399Z,32.25
2018-09-13T00:49:08.016Z,33.68
2018-09-13T00:51:38.971Z,34.15
2018-09-13T00:54:10.394Z,34.07
2018-09-13T00:56:41.786Z,31.81
2018-09-13T00:59:12.414Z,31.04
2018-09-13T01:01:43.274Z,31.26
2018-09-13T01:04:13.974Z,32.17
2018-09-13T01:06:44.772Z,34.28
2018-09-13T01:09:15.602Z,33.53
2018-09-13T01:11:46.348Z,31.89
2018-09-13T01:14:17.383Z,31.88
2018-09-13T01:16:48.337Z,32.99
2018-09-13T01:19:19.030Z,33.29
2018-09-13T01:21:49.680Z,34.74
2018-09-13T01:24:20.173Z,33.07
2018-09-13T01:26:50.764Z,33.72
2018-09-13T01:29:21.422Z,33.37
2018-09-13T01:31:52.181Z,33.75
2018-09-13T01:34:22.764Z,33.67
2018-09-13T01:36:53.310Z,32.78
2018-09-13T01:39:23.916Z,33.96
2018-09-13T01:41:54.712Z,33.97
2018-09-13T01:44:25.327Z,34.65
2018-09-13T01:46:56.124Z,35.25
2018-09-13T01:49:26.801Z,35.24
2018-09-13T01:51:57.252Z,33.98
2018-09-13T01:54:27.847Z,34.89
2018-09-13T01:56:58.658Z,34.57
2018-09-13T01:59:29.276Z,34.22
2018-09-13T02:02:00.277Z,34.94
2018-09-13T02:04:30.921Z,35.85
2018-09-13T02:07:01.812Z,34.99
2018-09-13T02:09:32.447Z,34.91
2018-09-13T02:12:04.643Z,35.30
2018-09-13T02:14:35.085Z,34.55
2018-09-13T02:17:05.799Z,34.77
2018-09-13T02:19:36.231Z,34.20
2018-09-13T02:22:06.984Z,33.58
2018-09-13T02:24:37.609Z,34.07
2018-09-13T02:27:08.639Z,33.76
2018-09-13T02:29:39.310Z,33.73
2018-09-13T02:32:10.060Z,33.98
2018-09-13T02:34:40.612Z,35.04
2018-09-13T02:37:11.398Z,34.54
2018-09-13T02:39:42.149Z,34.57
2018-09-13T02:42:13.021Z,34.25
2018-09-13T02:44:43.749Z,34.46
2018-09-13T02:47:14.483Z,34.34
2018-09-13T02:49:45.241Z,34.39
2018-09-13T02:52:15.970Z,32.88
2018-09-13T02:54:46.430Z,34.12
2018-09-13T02:57:17.281Z,36.48
2018-09-13T02:59:47.968Z,34.78
2018-09-13T03:02:21.936Z,36.31
2018-09-13T03:04:52.512Z,36.12
2018-09-13T03:07:23.191Z,34.96
2018-09-13T03:09:53.731Z,34.22
2018-09-13T03:12:24.469Z,35.90
2018-09-13T03:14:55.135Z,35.45
2018-09-13T03:17:25.856Z,34.45
2018-09-13T03:19:56.545Z,36.21
2018-09-13T03:22:27.532Z,35.52
2018-09-13T03:24:58.180Z,33.38
2018-09-13T03:27:28.986Z,34.06
2018-09-13T03:29:59.790Z,33.14
2018-09-13T03:32:30.977Z,33.07
2018-09-13T03:35:01.768Z,33.46
2018-09-13T03:37:32.617Z,34.03
2018-09-13T03:40:03.261Z,36.08
2018-09-13T03:42:33.880Z,35.16
2018-09-13T03:45:04.496Z,33.34
2018-09-13T03:47:35.132Z,34.41
2018-09-13T03:50:05.957Z,35.79
2018-09-13T03:52:36.687Z,34.49
2018-09-13T03:55:07.171Z,34.25
2018-09-13T03:57:38.098Z,33.24
2018-09-13T04:00:09.070Z,33.00
2018-09-13T04:02:40.816Z,31.71
2018-09-13T04:05:11.748Z,31.89
2018-09-13T04:07:42.501Z,31.40
2018-09-13T04:10:13.116Z,30.74
2018-09-13T04:12:43.926Z,32.73
2018-09-13T04:15:14.551Z,31.49
2018-09-13T04:17:45.262Z,31.71
2018-09-13T04:20:15.906Z,32.17
2018-09-13T04:22:46.627Z,31.02
2018-09-13T04:25:17.283Z,31.39
2018-09-13T04:27:48.281Z,31.91
2018-09-13T04:30:18.953Z,31.16
2018-09-13T04:32:49.969Z,31.73
2018-09-13T04:35:20.616Z,30.56
2018-09-13T04:37:51.497Z,30.46
2018-09-13T04:40:22.103Z,33.04
2018-09-13T04:42:52.921Z,33.74
2018-09-13T04:45:23.640Z,35.47
2018-09-13T04:47:55.363Z,34.31
2018-09-13T04:50:25.866Z,33.22
2018-09-13T04:52:56.726Z,32.95
2018-09-13T04:55:27.323Z,33.09
2018-09-13T04:57:58.439Z,33.40
2018-09-13T05:00:29.063Z,32.05
2018-09-13T05:03:00.086Z,32.60
2018-09-13T05:05:30.439Z,34.03
2018-09-13T05:08:01.383Z,34.30
2018-09-13T05:12:54.669Z,35.19
2018-09-13T05:15:25.153Z,34.90
2018-09-13T05:17:55.721Z,33.94
2018-09-13T05:20:26.317Z,33.54
2018-09-13T05:22:56.968Z,33.66
2018-09-13T05:25:27.680Z,31.48
2018-09-13T05:27:58.270Z,30.26
2018-09-13T05:30:29.016Z,31.34
2018-09-13T05:32:59.546Z,31.78
2018-09-13T05:35:30.236Z,31.89
2018-09-13T05:38:00.795Z,31.74
2018-09-13T05:40:31.727Z,31.48
2018-09-13T05:43:02.480Z,31.72
2018-09-13T05:45:33.474Z,31.57
2018-09-13T05:48:04.144Z,31.56
2018-09-13T05:50:34.898Z,31.67
2018-09-13T05:53:05.329Z,30.92
2018-09-13T05:55:35.951Z,31.99
2018-09-13T05:58:06.627Z,31.06
2018-09-13T06:00:37.584Z,31.82
2018-09-13T06:03:08.228Z,31.48
2018-09-13T06:05:39.181Z,30.72
2018-09-13T06:08:09.749Z,29.40
2018-09-13T06:10:40.706Z,29.39
2018-09-13T06:13:11.235Z,30.61
2018-09-13T06:15:42.311Z,29.56
2018-09-13T06:18:13.106Z,30.52
2018-09-13T06:20:43.871Z,31.40
2018-09-13T06:23:14.431Z,28.79
2018-09-13T06:25:45.182Z,28.58
2018-09-13T06:28:15.812Z,27.66
2018-09-13T06:30:46.759Z,26.13
2018-09-13T06:33:17.363Z,27.56
2018-09-13T06:35:47.767Z,27.96
2018-09-13T06:38:18.437Z,27.65
2018-09-13T06:40:49.168Z,27.90
2018-09-13T06:43:19.783Z,28.53
2018-09-13T06:45:51.074Z,27.35
2018-09-13T06:48:21.558Z,28.81
2018-09-13T06:50:52.413Z,27.44
2018-09-13T06:53:22.939Z,28.35
2018-09-13T06:55:53.611Z,28.90
2018-09-13T06:58:24.264Z,27.58
2018-09-13T07:00:55.189Z,27.56
2018-09-13T07:03:25.673Z,28.44
2018-09-13T07:05:56.413Z,26.46
2018-09-13T07:08:26.908Z,28.11
2018-09-13T07:10:57.779Z,27.27
2018-09-13T07:13:28.320Z,28.26
2018-09-13T07:15:59.123Z,28.56
2018-09-13T07:18:29.609Z,28.04
2018-09-13T07:21:00.368Z,27.37
2018-09-13T07:23:30.979Z,26.47
2018-09-13T07:26:01.600Z,26.09
2018-09-13T07:28:32.178Z,26.20
2018-09-13T07:31:03.132Z,24.68
2018-09-13T07:33:33.517Z,24.05
2018-09-13T07:36:04.224Z,24.61
2018-09-13T07:38:34.857Z,23.28
2018-09-13T07:41:05.881Z,23.29
2018-09-13T07:43:36.492Z,21.79
2018-09-13T07:46:07.333Z,23.33
2018-09-13T07:48:37.936Z,23.22
2018-09-13T07:51:08.611Z,23.96
2018-09-13T07:53:39.402Z,22.37
2018-09-13T07:56:10.449Z,21.89
2018-09-13T07:58:40.921Z,22.10
2018-09-13T08:01:11.639Z,22.68
2018-09-13T08:03:42.291Z,21.18
2018-09-13T08:06:13.089Z,21.23
2018-09-13T08:08:43.767Z,21.97
2018-09-13T08:11:14.528Z,22.47
2018-09-13T08:13:45.048Z,22.30
2018-09-13T08:16:15.712Z,20.30
2018-09-13T08:18:46.277Z,20.88
2018-09-13T08:21:17.179Z,20.75
2018-09-13T08:23:47.663Z,20.40
2018-09-13T08:26:18.540Z,20.07
2018-09-13T08:28:49.102Z,20.25
2018-09-13T08:31:20.037Z,19.67
2018-09-13T08:33:51.002Z,19.28
2018-09-13T08:36:21.862Z,19.91
2018-09-13T08:38:52.451Z,21.42
2018-09-13T08:41:23.315Z,22.86
2018-09-13T08:43:53.879Z,22.71
2018-09-13T08:46:24.776Z,22.71
2018-09-13T08:48:55.436Z,22.17
2018-09-13T08:51:26.474Z,20.92
2018-09-13T08:53:56.973Z,22.06
2018-09-13T08:56:27.782Z,19.85
2018-09-13T08:58:58.768Z,21.15
2018-09-13T09:01:29.476Z,22.47
2018-09-13T09:03:59.975Z,22.51
2018-09-13T09:06:30.873Z,19.93
2018-09-13T09:09:01.491Z,22.67
2018-09-13T09:11:32.372Z,24.34
2018-09-13T09:14:02.969Z,20.83
2018-09-13T09:16:33.657Z,21.29
2018-09-13T09:19:04.179Z,22.75
2018-09-13T09:21:35.166Z,22.14
2018-09-13T09:24:05.743Z,21.44
2018-09-13T09:26:36.466Z,19.79
2018-09-13T09:29:07.242Z,19.49
2018-09-13T09:31:37.841Z,19.83
2018-09-13T09:34:08.330Z,22.47
2018-09-13T09:36:39.016Z,21.79
2018-09-13T09:39:13.465Z,20.42
2018-09-13T09:41:44.667Z,19.27
2018-09-13T09:44:15.286Z,19.95
2018-09-13T09:46:46.121Z,19.14
2018-09-13T09:49:16.726Z,19.43
2018-09-13T09:51:47.348Z,20.42
2018-09-13T09:54:17.803Z,20.22
2018-09-13T09:56:48.479Z,18.87
2018-09-13T09:59:19.064Z,18.53
2018-09-13T10:01:54.917Z,18.63
2018-09-13T10:04:25.700Z,20.86
2018-09-13T10:06:57.258Z,17.55
2018-09-13T10:09:27.709Z,17.04
2018-09-13T10:11:58.210Z,18.65
2018-09-13T10:14:28.725Z,18.01
2018-09-13T10:17:04.549Z,18.58
2018-09-13T10:19:40.341Z,18.38
2018-09-13T10:22:15.927Z,17.98
2018-09-13T10:24:51.395Z,16.12
2018-09-13T10:27:27.385Z,15.74
2018-09-13T10:30:02.934Z,16.24
2018-09-13T10:32:38.653Z,16.98
2018-09-13T10:36:14.020Z,16.60
2018-09-13T10:38:51.101Z,17.77
2018-09-13T10:41:26.815Z,18.25
2018-09-13T10:44:02.667Z,16.75
2018-09-13T10:46:33.304Z,16.81
2018-09-13T10:49:08.766Z,17.76
2018-09-13T10:51:44.107Z,17.25
2018-09-13T10:54:24.397Z,18.84
2018-09-13T10:56:55.078Z,18.50
2018-09-13T10:59:26.016Z,16.50
2018-09-13T11:01:56.707Z,18.95
2018-09-13T11:04:27.745Z,19.15
2018-09-13T11:06:58.300Z,18.26
2018-09-13T11:09:29.200Z,16.89
2018-09-13T11:11:59.904Z,15.68
2018-09-13T11:14:34.913Z,16.74
2018-09-13T11:17:05.604Z,17.89
2018-09-13T11:19:36.403Z,15.58
2018-09-13T11:22:07.046Z,17.18
2018-09-13T11:24:37.853Z,17.85
2018-09-13T11:27:08.495Z,18.57
2018-09-13T11:29:39.439Z,17.70
2018-09-13T11:32:10.560Z,17.77
2018-09-13T11:34:42.270Z,19.09
2018-09-13T11:37:15.616Z,19.03
2018-09-13T11:39:46.437Z,17.71
2018-09-13T11:42:19.939Z,17.45
2018-09-13T11:44:51.909Z,17.95
2018-09-13T11:47:25.403Z,17.17
2018-09-13T11:49:56.445Z,17.53
2018-09-13T11:52:29.460Z,21.23
2018-09-13T11:55:02.449Z,20.71
2018-09-13T11:57:33.141Z,20.62
2018-09-13T12:00:03.877Z,20.97
2018-09-13T12:02:34.450Z,20.24
2018-09-13T12:05:05.328Z,20.70
2018-09-13T12:07:35.715Z,22.27
2018-09-13T12:10:06.820Z,20.55
2018-09-13T12:12:37.473Z,20.08
2018-09-13T12:15:09.328Z,20.33
2018-09-13T12:17:42.803Z,21.37
2018-09-13T12:20:18.262Z,22.72
2018-09-13T12:22:50.447Z,22.62
2018-09-13T12:25:23.665Z,23.61
2018-09-13T12:27:54.188Z,23.67
2018-09-13T12:30:24.855Z,21.82
2018-09-13T12:32:55.548Z,21.38
2018-09-13T12:35:26.220Z,21.26
2018-09-13T12:37:56.900Z,21.60
2018-09-13T12:40:27.832Z,21.97
2018-09-13T12:42:58.348Z,22.91
2018-09-13T12:45:29.709Z,24.53
2018-09-13T12:48:00.289Z,25.34
2018-09-13T12:50:30.999Z,24.79
2018-09-13T12:53:01.598Z,27.78
2018-09-13T12:55:37.185Z,25.72
2018-09-13T12:58:07.857Z,24.78
2018-09-13T13:00:38.821Z,25.72
2018-09-13T13:03:09.404Z,25.30
2018-09-13T13:05:40.325Z,25.01
2018-09-13T13:08:10.964Z,22.55
2018-09-13T13:10:41.753Z,23.67
2018-09-13T13:13:12.365Z,21.34
2018-09-13T13:15:43.240Z,19.51
2018-09-13T13:18:13.872Z,20.45
2018-09-13T13:20:44.491Z,18.48
2018-09-13T13:23:15.089Z,19.59
2018-09-13T13:25:45.844Z,19.60
2018-09-13T13:28:16.361Z,18.51
2018-09-13T13:30:47.073Z,17.75
2018-09-13T13:33:17.850Z,17.18
2018-09-13T13:35:48.541Z,17.10
2018-09-13T13:38:19.213Z,16.58
2018-09-13T13:40:49.936Z,17.48
2018-09-13T13:43:20.533Z,16.95
2018-09-13T13:45:51.697Z,15.45
2018-09-13T13:48:23.081Z,15.49
2018-09-13T13:50:54.098Z,16.58
2018-09-13T13:53:24.740Z,17.72
2018-09-13T13:55:55.596Z,17.07
2018-09-13T13:58:26.301Z,15.96
2018-09-13T14:00:57.376Z,14.87
2018-09-13T14:03:27.906Z,15.63
2018-09-13T14:05:58.582Z,14.80
2018-09-13T14:08:29.181Z,15.92
2018-09-13T14:10:59.899Z,14.38
2018-09-13T14:13:30.490Z,14.69
2018-09-13T14:16:01.334Z,15.32
2018-09-13T14:18:32.073Z,15.84
2018-09-13T14:21:02.925Z,15.32
2018-09-13T14:23:33.597Z,16.40
2018-09-13T14:26:04.335Z,15.45
2018-09-13T14:28:34.961Z,14.96
2018-09-13T14:31:05.706Z,15.76
2018-09-13T14:33:36.535Z,14.49
2018-09-13T14:36:07.348Z,15.10
2018-09-13T14:38:38.054Z,16.11
2018-09-13T14:41:08.843Z,15.83
2018-09-13T14:43:39.522Z,16.83
2018-09-13T14:46:10.681Z,15.94
2018-09-13T14:48:41.594Z,16.60
2018-09-13T14:51:12.475Z,16.84
2018-09-13T14:53:43.096Z,17.07
2018-09-13T14:56:14.027Z,16.64
2018-09-13T14:58:44.604Z,17.17
2018-09-13T15:01:15.294Z,16.62
2018-09-13T15:03:45.912Z,18.42
2018-09-13T15:06:16.644Z,18.11
2018-09-13T15:08:47.545Z,18.01
2018-09-13T15:11:18.389Z,19.30
2018-09-13T15:13:48.980Z,18.89
2018-09-13T15:16:19.817Z,18.12
2018-09-13T15:18:50.480Z,19.74
2018-09-13T15:21:21.524Z,19.07
2018-09-13T15:23:52.109Z,17.94
2018-09-13T15:26:22.807Z,18.97
2018-09-13T15:28:53.608Z,18.50
2018-09-13T15:31:24.517Z,19.21
2018-09-13T15:33:54.997Z,18.66
2018-09-13T15:36:25.640Z,18.01
2018-09-13T15:38:56.115Z,19.22
2018-09-13T15:41:26.665Z,19.34
2018-09-13T15:43:57.301Z,17.95
2018-09-13T15:46:27.999Z,19.01
2018-09-13T15:48:58.589Z,17.93
2018-09-13T15:51:29.436Z,17.93
2018-09-13T15:53:59.989Z,19.32
2018-09-13T15:56:30.768Z,19.55
2018-09-13T15:59:01.664Z,19.54
2018-09-13T16:01:32.514Z,19.59
2018-09-13T16:04:03.025Z,19.89
2018-09-13T16:06:33.792Z,19.85
2018-09-13T16:09:04.977Z,20.40
2018-09-13T16:11:35.842Z,20.53
2018-09-13T16:14:06.406Z,20.16
2018-09-13T16:16:37.133Z,19.64
2018-09-13T16:19:07.777Z,20.16
2018-09-13T16:21:38.458Z,20.78
2018-09-13T16:24:08.827Z,20.53
2018-09-13T16:26:39.466Z,20.03
2018-09-13T16:29:10.314Z,19.41
2018-09-13T16:31:41.464Z,21.40
2018-09-13T16:34:12.142Z,23.32
2018-09-13T16:36:48.046Z,24.65
2018-09-13T16:39:27.225Z,25.26
2018-09-13T16:42:02.876Z,24.57
2018-09-13T16:44:39.108Z,24.33
2018-09-13T16:47:14.964Z,24.35
2018-09-13T16:49:45.717Z,24.11
2018-09-13T16:52:16.488Z,25.11
2018-09-13T16:54:47.132Z,24.52
2018-09-13T16:57:17.894Z,24.16
2018-09-13T16:59:49.525Z,24.04
2018-09-13T17:02:20.760Z,24.96
2018-09-13T17:04:51.513Z,25.44
2018-09-13T17:07:22.496Z,25.13
2018-09-13T17:09:53.186Z,26.04
2018-09-13T17:12:23.825Z,24.65
2018-09-13T17:14:54.520Z,24.67
2018-09-13T17:17:25.437Z,25.05
2018-09-13T17:19:56.092Z,25.68
2018-09-13T17:22:27.120Z,25.18
2018-09-13T17:24:57.886Z,25.75
2018-09-13T17:27:28.857Z,25.15
2018-09-13T17:29:59.550Z,25.36
2018-09-13T17:32:30.173Z,24.83
2018-09-13T17:35:00.801Z,27.30
2018-09-13T17:37:31.599Z,26.53
2018-09-13T17:40:02.300Z,26.26
2018-09-13T17:42:32.842Z,24.83
2018-09-13T17:45:03.692Z,24.72
2018-09-13T17:47:34.572Z,26.39
2018-09-13T17:50:05.231Z,26.90
2018-09-13T17:52:36.058Z,27.67
2018-09-13T17:55:06.798Z,27.42
2018-09-13T17:57:37.573Z,28.45
2018-09-13T18:00:10.458Z,28.69
2018-09-13T18:02:41.328Z,27.89
2018-09-13T18:06:11.029Z,29.93
2018-09-13T18:08:41.739Z,31.38
2018-09-13T18:11:12.448Z,31.98
2018-09-13T18:13:43.349Z,32.55
2018-09-13T18:16:14.103Z,31.46
2018-09-13T18:18:45.102Z,30.77
2018-09-13T18:21:15.658Z,32.20
2018-09-13T18:23:46.377Z,32.79
2018-09-13T18:26:16.936Z,31.65
2018-09-13T18:28:47.840Z,31.38
2018-09-13T18:31:18.422Z,32.43
2018-09-13T18:33:49.153Z,32.57
2018-09-13T18:36:19.617Z,31.61
2018-09-13T18:38:50.766Z,31.09
2018-09-13T18:41:21.364Z,31.72
2018-09-13T18:43:52.222Z,32.06
2018-09-13T18:46:22.644Z,30.74
2018-09-13T18:48:53.238Z,31.58
2018-09-13T18:51:23.762Z,31.56
2018-09-13T18:53:54.613Z,32.34
2018-09-13T18:56:25.197Z,31.71
2018-09-13T18:58:55.946Z,31.10
2018-09-13T19:01:26.517Z,31.39
2018-09-13T19:03:57.389Z,30.99
2018-09-13T19:06:27.958Z,30.53
2018-09-13T19:08:59.039Z,33.14
2018-09-13T19:11:29.618Z,31.73
2018-09-13T19:14:00.235Z,32.26
2018-09-13T19:16:30.777Z,32.69
2018-09-13T19:19:01.437Z,32.27
2018-09-13T19:21:32.052Z,32.51
2018-09-13T19:24:02.982Z,32.56
2018-09-13T19:26:33.449Z,32.17
2018-09-13T19:29:04.017Z,32.39
2018-09-13T19:31:34.569Z,32.51
2018-09-13T19:34:05.308Z,32.86
2018-09-13T19:36:35.869Z,33.36
2018-09-13T19:39:09.796Z,32.71
2018-09-13T19:41:40.585Z,31.39
2018-09-13T19:44:11.652Z,32.96
2018-09-13T19:46:42.419Z,33.25
2018-09-13T19:49:13.285Z,33.02
2018-09-13T19:51:43.830Z,32.54
2018-09-13T19:54:14.658Z,32.77
2018-09-13T19:56:45.320Z,33.70
2018-09-13T19:59:16.159Z,32.67
2018-09-13T20:01:46.765Z,32.63
2018-09-13T20:04:18.000Z,33.37
2018-09-13T20:06:48.561Z,33.52
2018-09-13T20:09:19.593Z,33.38
2018-09-13T20:11:50.118Z,33.57
2018-09-13T20:14:20.942Z,33.14
2018-09-13T20:16:51.484Z,33.59
2018-09-13T20:19:22.124Z,33.46
2018-09-13T20:21:52.797Z,32.18
2018-09-13T20:24:23.513Z,31.18
2018-09-13T20:26:54.146Z,31.65
2018-09-13T20:29:24.839Z,32.27
2018-09-13T20:31:55.453Z,32.31
2018-09-13T20:34:26.452Z,32.73
2018-09-13T20:36:57.104Z,32.49
2018-09-13T20:39:28.047Z,31.97
2018-09-13T20:41:58.461Z,31.12
2018-09-13T20:44:29.242Z,31.38
2018-09-13T20:46:59.909Z,30.74
2018-09-13T20:49:30.717Z,31.12
2018-09-13T20:52:01.465Z,30.82
2018-09-13T20:54:32.282Z,32.66
2018-09-13T20:57:02.911Z,33.61
2018-09-13T20:59:33.728Z,31.27
2018-09-13T21:02:04.385Z,31.06
2018-09-13T21:04:35.239Z,30.65
2018-09-13T21:07:05.885Z,30.99
2018-09-13T21:09:36.772Z,30.16
2018-09-13T21:12:07.434Z,29.63
2018-09-13T21:14:38.459Z,30.72
2018-09-13T21:17:09.287Z,30.90
2018-09-13T21:19:40.007Z,30.36
2018-09-13T21:22:11.473Z,29.88
2018-09-13T21:24:42.353Z,30.70
2018-09-13T21:27:12.991Z,30.65
2018-09-13T21:29:43.655Z,30.12
2018-09-13T21:32:14.271Z,31.55
2018-09-13T21:34:45.116Z,31.83
2018-09-13T21:37:15.636Z,31.67
2018-09-13T21:39:46.361Z,31.30
2018-09-13T21:42:16.972Z,31.84
2018-09-13T21:44:47.742Z,32.55
2018-09-13T21:47:18.341Z,31.89
2018-09-13T21:49:49.132Z,31.17
2018-09-13T21:52:19.731Z,32.35
2018-09-13T21:54:50.585Z,31.64
2018-09-13T21:57:21.272Z,32.15
2018-09-13T21:59:52.056Z,32.32
2018-09-13T22:02:22.480Z,32.23
2018-09-13T22:04:53.173Z,31.83
2018-09-13T22:07:23.655Z,32.55
2018-09-13T22:09:54.314Z,31.70
2018-09-13T22:12:24.819Z,32.78
2018-09-13T22:14:55.472Z,32.28
2018-09-13T22:17:26.192Z,31.38
2018-09-13T22:19:57.008Z,31.73
2018-09-13T22:22:27.631Z,32.15
2018-09-13T22:24:58.380Z,31.45
2018-09-13T22:27:28.943Z,31.87
2018-09-13T22:29:59.876Z,31.99
2018-09-13T22:32:30.629Z,31.86
2018-09-13T22:35:01.398Z,31.98
2018-09-13T22:37:32.193Z,32.04
2018-09-13T22:40:03.013Z,32.57
2018-09-13T22:42:33.844Z,31.69
2018-09-13T22:45:05.213Z,32.06
2018-09-13T22:47:35.679Z,31.63
2018-09-13T22:50:06.368Z,32.03
2018-09-13T22:52:36.932Z,32.20
2018-09-13T22:55:07.810Z,32.50
2018-09-13T22:57:38.321Z,31.93
2018-09-13T23:00:09.405Z,31.82
2018-09-13T23:02:44.814Z,32.52
2018-09-13T23:05:15.668Z,32.50
2018-09-13T23:07:46.512Z,32.17
2018-09-13T23:10:17.783Z,32.27
2018-09-13T23:12:48.403Z,34.00
2018-09-13T23:15:19.324Z,33.10
2018-09-13T23:17:49.950Z,33.27
2018-09-13T23:20:20.483Z,33.34
2018-09-13T23:22:51.028Z,34.55
2018-09-13T23:25:22.072Z,32.85
2018-09-13T23:27:52.527Z,31.97
2018-09-13T23:30:23.322Z,31.05
2018-09-13T23:32:53.774Z,30.88
2018-09-13T23:35:24.532Z,31.05
2018-09-13T23:37:55.053Z,30.58
2018-09-13T23:40:25.982Z,30.33
2018-09-13T23:42:56.427Z,30.95
2018-09-13T23:45:27.180Z,31.35
2018-09-13T23:47:57.990Z,33.29
2018-09-13T23:50:28.784Z,32.74
2018-09-13T23:52:59.245Z,32.21
2018-09-13T23:55:30.213Z,30.98
2018-09-13T23:58:00.820Z,31.96
